sensor_id;sensor_type;location;lat;lon;timestamp;temperature;humidity
3564;DHT22;1796;52.388;13.096;2024-01-27T00:01:51;4.80;99.90
3564;DHT22;1796;52.388;13.096;2024-01-27T00:04:18;4.80;99.90
3564;DHT22;1796;52.388;13.096;2024-01-27T00:06:45;4.80;99.90
3564;DHT22;1796;52.388;13.096;2024-01-27T00:09:12;4.70;99.90
3564;DHT22;1796;52.388;13.096;2024-01-27T00:11:39;4.70;99.90
3564;DHT22;1796;52.388;13.096;2024-01-27T00:14:06;4.70;99.90
3564;DHT22;1796;52.388;13.096;2024-01-27T00:16:33;4.60;99.90
3564;DHT22;1796;52.388;13.096;2024-01-27T00:19:01;4.70;99.90
3564;DHT22;1796;52.388;13.096;2024-01-27T00:21:28;4.70;99.90
3564;DHT22;1796;52.388;13.096;2024-01-27T00:23:54;4.70;99.90
3564;DHT22;1796;52.388;13.096;2024-01-27T00:26:26;4.80;99.90
3564;DHT22;1796;52.388;13.096;2024-01-27T00:28:53;4.80;99.90
3564;DHT22;1796;52.388;13.096;2024-01-27T00:31:20;4.70;99.90
3564;DHT22;1796;52.388;13.096;2024-01-27T00:33:47;4.80;99.90
3564;DHT22;1796;52.388;13.096;2024-01-27T00:36:15;4.80;99.90
3564;DHT22;1796;52.388;13.096;2024-01-27T00:38:43;4.80;99.90
3564;DHT22;1796;52.388;13.096;2024-01-27T00:41:16;4.80;99.90
3564;DHT22;1796;52.388;13.096;2024-01-27T00:43:43;4.80;99.90
3564;DHT22;1796;52.388;13.096;2024-01-27T00:46:10;4.70;99.90
3564;DHT22;1796;52.388;13.096;2024-01-27T00:48:37;4.70;99.90
3564;DHT22;1796;52.388;13.096;2024-01-27T00:51:04;4.70;99.90
3564;DHT22;1796;52.388;13.096;2024-01-27T00:53:32;4.70;99.90
3564;DHT22;1796;52.388;13.096;2024-01-27T00:55:59;4.60;99.90
3564;DHT22;1796;52.388;13.096;2024-01-27T00:58:27;4.60;99.90
3564;DHT22;1796;52.388;13.096;2024-01-27T01:00:54;4.60;99.90
3564;DHT22;1796;52.388;13.096;2024-01-27T01:03:20;4.60;99.90
3564;DHT22;1796;52.388;13.096;2024-01-27T01:05:47;4.60;99.90
3564;DHT22;1796;52.388;13.096;2024-01-27T01:08:14;4.60;99.90
3564;DHT22;1796;52.388;13.096;2024-01-27T01:10:43;4.60;99.90
3564;DHT22;1796;52.388;13.096;2024-01-27T01:13:10;4.60;99.90
3564;DHT22;1796;52.388;13.096;2024-01-27T01:15:37;4.60;99.90
3564;DHT22;1796;52.388;13.096;2024-01-27T01:18:05;4.60;99.90
3564;DHT22;1796;52.388;13.096;2024-01-27T01:20:32;4.50;99.90
3564;DHT22;1796;52.388;13.096;2024-01-27T01:22:59;4.50;99.90
3564;DHT22;1796;52.388;13.096;2024-01-27T01:25:26;4.40;99.90
3564;DHT22;1796;52.388;13.096;2024-01-27T01:27:54;4.40;99.90
3564;DHT22;1796;52.388;13.096;2024-01-27T01:30:21;4.50;99.90
3564;DHT22;1796;52.388;13.096;2024-01-27T01:32:48;4.50;99.90
3564;DHT22;1796;52.388;13.096;2024-01-27T01:35:15;4.50;99.90
3564;DHT22;1796;52.388;13.096;2024-01-27T01:37:42;4.60;99.90
3564;DHT22;1796;52.388;13.096;2024-01-27T01:40:10;4.50;99.90
3564;DHT22;1796;52.388;13.096;2024-01-27T01:42:38;4.50;99.90
3564;DHT22;1796;52.388;13.096;2024-01-27T01:45:07;4.60;99.90
3564;DHT22;1796;52.388;13.096;2024-01-27T01:47:34;4.60;99.90
3564;DHT22;1796;52.388;13.096;2024-01-27T01:50:01;4.60;99.90
3564;DHT22;1796;52.388;13.096;2024-01-27T01:52:29;4.60;99.90
3564;DHT22;1796;52.388;13.096;2024-01-27T01:54:56;4.70;99.90
3564;DHT22;1796;52.388;13.096;2024-01-27T01:57:23;4.60;99.90
3564;DHT22;1796;52.388;13.096;2024-01-27T01:59:49;4.60;99.90
3564;DHT22;1796;52.388;13.096;2024-01-27T02:02:18;4.60;99.90
3564;DHT22;1796;52.388;13.096;2024-01-27T02:04:46;4.60;99.90
3564;DHT22;1796;52.388;13.096;2024-01-27T02:07:13;4.60;99.90
3564;DHT22;1796;52.388;13.096;2024-01-27T02:09:40;4.60;99.90
3564;DHT22;1796;52.388;13.096;2024-01-27T02:12:07;4.60;99.90
3564;DHT22;1796;52.388;13.096;2024-01-27T02:14:34;4.60;99.90
3564;DHT22;1796;52.388;13.096;2024-01-27T02:17:01;4.60;99.90
3564;DHT22;1796;52.388;13.096;2024-01-27T02:19:29;4.60;99.90
3564;DHT22;1796;52.388;13.096;2024-01-27T02:21:56;4.50;99.90
3564;DHT22;1796;52.388;13.096;2024-01-27T02:24:25;4.50;99.90
3564;DHT22;1796;52.388;13.096;2024-01-27T02:26:53;4.50;99.90
3564;DHT22;1796;52.388;13.096;2024-01-27T02:29:19;4.40;99.90
3564;DHT22;1796;52.388;13.096;2024-01-27T02:31:46;4.30;99.90
3564;DHT22;1796;52.388;13.096;2024-01-27T02:34:13;4.20;99.90
3564;DHT22;1796;52.388;13.096;2024-01-27T02:36:40;4.20;99.90
3564;DHT22;1796;52.388;13.096;2024-01-27T02:39:09;4.10;99.90
3564;DHT22;1796;52.388;13.096;2024-01-27T02:41:37;4.10;99.90
3564;DHT22;1796;52.388;13.096;2024-01-27T02:44:04;4.00;99.90
3564;DHT22;1796;52.388;13.096;2024-01-27T02:46:31;4.00;99.90
3564;DHT22;1796;52.388;13.096;2024-01-27T02:48:58;3.90;99.90
3564;DHT22;1796;52.388;13.096;2024-01-27T02:51:25;4.00;99.90
3564;DHT22;1796;52.388;13.096;2024-01-27T02:53:52;4.00;99.90
3564;DHT22;1796;52.388;13.096;2024-01-27T02:56:19;4.00;99.90
3564;DHT22;1796;52.388;13.096;2024-01-27T02:58:47;3.90;99.90
3564;DHT22;1796;52.388;13.096;2024-01-27T03:01:14;3.90;99.90
3564;DHT22;1796;52.388;13.096;2024-01-27T03:03:41;3.80;99.90
3564;DHT22;1796;52.388;13.096;2024-01-27T03:06:08;3.80;99.90
3564;DHT22;1796;52.388;13.096;2024-01-27T03:08:35;3.70;99.90
3564;DHT22;1796;52.388;13.096;2024-01-27T03:11:01;3.70;99.90
3564;DHT22;1796;52.388;13.096;2024-01-27T03:13:28;3.60;99.90
3564;DHT22;1796;52.388;13.096;2024-01-27T03:15:57;3.70;99.90
3564;DHT22;1796;52.388;13.096;2024-01-27T03:18:23;3.70;99.90
3564;DHT22;1796;52.388;13.096;2024-01-27T03:20:50;3.70;99.90
3564;DHT22;1796;52.388;13.096;2024-01-27T03:23:17;3.70;99.90
3564;DHT22;1796;52.388;13.096;2024-01-27T03:25:44;3.60;99.90
3564;DHT22;1796;52.388;13.096;2024-01-27T03:28:11;3.70;99.90
3564;DHT22;1796;52.388;13.096;2024-01-27T03:30:38;3.60;99.90
3564;DHT22;1796;52.388;13.096;2024-01-27T03:33:06;3.60;99.90
3564;DHT22;1796;52.388;13.096;2024-01-27T03:35:36;3.60;99.90
3564;DHT22;1796;52.388;13.096;2024-01-27T03:38:04;3.60;99.90
3564;DHT22;1796;52.388;13.096;2024-01-27T03:40:31;3.60;99.90
3564;DHT22;1796;52.388;13.096;2024-01-27T03:42:58;3.50;99.90
3564;DHT22;1796;52.388;13.096;2024-01-27T03:45:25;3.50;99.90
3564;DHT22;1796;52.388;13.096;2024-01-27T03:47:52;3.50;99.90
3564;DHT22;1796;52.388;13.096;2024-01-27T03:50:20;3.50;99.90
3564;DHT22;1796;52.388;13.096;2024-01-27T03:52:47;3.50;99.90
3564;DHT22;1796;52.388;13.096;2024-01-27T03:55:14;3.50;99.90
3564;DHT22;1796;52.388;13.096;2024-01-27T03:57:41;3.50;99.90
3564;DHT22;1796;52.388;13.096;2024-01-27T04:00:09;3.50;99.90
3564;DHT22;1796;52.388;13.096;2024-01-27T04:02:38;3.40;99.90
3564;DHT22;1796;52.388;13.096;2024-01-27T04:05:05;3.40;99.90
3564;DHT22;1796;52.388;13.096;2024-01-27T04:07:34;3.40;99.90
3564;DHT22;1796;52.388;13.096;2024-01-27T04:10:02;3.40;99.90
3564;DHT22;1796;52.388;13.096;2024-01-27T04:12:29;3.40;99.90
3564;DHT22;1796;52.388;13.096;2024-01-27T04:14:57;3.40;99.90
3564;DHT22;1796;52.388;13.096;2024-01-27T04:17:25;3.40;99.90
3564;DHT22;1796;52.388;13.096;2024-01-27T04:19:52;3.40;99.90
3564;DHT22;1796;52.388;13.096;2024-01-27T04:22:19;3.30;99.90
3564;DHT22;1796;52.388;13.096;2024-01-27T04:24:47;3.30;99.90
3564;DHT22;1796;52.388;13.096;2024-01-27T04:27:14;3.30;99.90
3564;DHT22;1796;52.388;13.096;2024-01-27T04:29:41;3.30;99.90
3564;DHT22;1796;52.388;13.096;2024-01-27T04:32:08;3.30;99.90
3564;DHT22;1796;52.388;13.096;2024-01-27T04:34:35;3.30;99.90
3564;DHT22;1796;52.388;13.096;2024-01-27T04:37:02;3.30;99.90
3564;DHT22;1796;52.388;13.096;2024-01-27T04:39:29;3.20;99.90
3564;DHT22;1796;52.388;13.096;2024-01-27T04:41:58;3.20;99.90
3564;DHT22;1796;52.388;13.096;2024-01-27T04:44:24;3.20;99.90
3564;DHT22;1796;52.388;13.096;2024-01-27T04:46:51;3.30;99.90
3564;DHT22;1796;52.388;13.096;2024-01-27T04:49:18;3.30;99.90
3564;DHT22;1796;52.388;13.096;2024-01-27T04:51:45;3.20;99.90
3564;DHT22;1796;52.388;13.096;2024-01-27T04:54:12;3.20;99.90
3564;DHT22;1796;52.388;13.096;2024-01-27T04:56:39;3.10;99.90
3564;DHT22;1796;52.388;13.096;2024-01-27T04:59:07;3.20;99.90
3564;DHT22;1796;52.388;13.096;2024-01-27T05:01:34;3.20;99.90
3564;DHT22;1796;52.388;13.096;2024-01-27T05:04:01;3.40;99.90
3564;DHT22;1796;52.388;13.096;2024-01-27T05:06:28;3.40;99.90
3564;DHT22;1796;52.388;13.096;2024-01-27T05:08:54;3.60;99.90
3564;DHT22;1796;52.388;13.096;2024-01-27T05:11:25;3.70;99.90
3564;DHT22;1796;52.388;13.096;2024-01-27T05:13:53;3.70;99.90
3564;DHT22;1796;52.388;13.096;2024-01-27T05:16:21;3.80;99.90
3564;DHT22;1796;52.388;13.096;2024-01-27T05:18:48;3.80;99.90
3564;DHT22;1796;52.388;13.096;2024-01-27T05:21:15;3.90;99.90
3564;DHT22;1796;52.388;13.096;2024-01-27T05:23:42;3.90;99.90
3564;DHT22;1796;52.388;13.096;2024-01-27T05:26:09;4.00;99.90
3564;DHT22;1796;52.388;13.096;2024-01-27T05:28:36;4.00;99.90
3564;DHT22;1796;52.388;13.096;2024-01-27T05:31:03;4.00;99.90
3564;DHT22;1796;52.388;13.096;2024-01-27T05:33:32;4.00;99.90
3564;DHT22;1796;52.388;13.096;2024-01-27T05:35:59;4.00;99.90
3564;DHT22;1796;52.388;13.096;2024-01-27T05:38:26;4.10;99.90
3564;DHT22;1796;52.388;13.096;2024-01-27T05:40:54;4.00;99.90
3564;DHT22;1796;52.388;13.096;2024-01-27T05:43:21;4.10;99.90
3564;DHT22;1796;52.388;13.096;2024-01-27T05:45:48;4.20;99.90
3564;DHT22;1796;52.388;13.096;2024-01-27T05:48:15;4.10;99.90
3564;DHT22;1796;52.388;13.096;2024-01-27T05:50:54;4.10;99.90
3564;DHT22;1796;52.388;13.096;2024-01-27T05:53:21;4.10;99.90
3564;DHT22;1796;52.388;13.096;2024-01-27T05:55:48;4.10;99.90
3564;DHT22;1796;52.388;13.096;2024-01-27T05:58:15;4.10;99.90
3564;DHT22;1796;52.388;13.096;2024-01-27T06:00:42;4.20;99.90
3564;DHT22;1796;52.388;13.096;2024-01-27T06:03:09;4.10;99.90
3564;DHT22;1796;52.388;13.096;2024-01-27T06:05:36;4.10;99.90
3564;DHT22;1796;52.388;13.096;2024-01-27T06:08:06;4.20;99.90
3564;DHT22;1796;52.388;13.096;2024-01-27T06:10:34;4.30;99.90
3564;DHT22;1796;52.388;13.096;2024-01-27T06:13:02;4.30;99.90
3564;DHT22;1796;52.388;13.096;2024-01-27T06:15:29;4.20;99.90
3564;DHT22;1796;52.388;13.096;2024-01-27T06:17:56;4.20;99.90
3564;DHT22;1796;52.388;13.096;2024-01-27T06:20:23;4.30;99.90
3564;DHT22;1796;52.388;13.096;2024-01-27T06:22:51;4.30;99.90
3564;DHT22;1796;52.388;13.096;2024-01-27T06:25:20;4.40;99.90
3564;DHT22;1796;52.388;13.096;2024-01-27T06:27:47;4.40;99.90
3564;DHT22;1796;52.388;13.096;2024-01-27T06:30:15;4.40;99.90
3564;DHT22;1796;52.388;13.096;2024-01-27T06:32:42;4.40;99.90
3564;DHT22;1796;52.388;13.096;2024-01-27T06:35:09;4.40;99.90
3564;DHT22;1796;52.388;13.096;2024-01-27T06:37:36;4.40;99.90
3564;DHT22;1796;52.388;13.096;2024-01-27T06:40:03;4.40;99.90
3564;DHT22;1796;52.388;13.096;2024-01-27T06:42:32;4.50;99.90
3564;DHT22;1796;52.388;13.096;2024-01-27T06:44:59;4.50;99.90
3564;DHT22;1796;52.388;13.096;2024-01-27T06:47:26;4.50;99.90
3564;DHT22;1796;52.388;13.096;2024-01-27T06:49:52;4.40;99.90
3564;DHT22;1796;52.388;13.096;2024-01-27T06:52:19;4.40;99.90
3564;DHT22;1796;52.388;13.096;2024-01-27T06:54:46;4.40;99.90
3564;DHT22;1796;52.388;13.096;2024-01-27T06:57:20;4.50;99.90
3564;DHT22;1796;52.388;13.096;2024-01-27T06:59:49;4.50;99.90
3564;DHT22;1796;52.388;13.096;2024-01-27T07:02:19;4.50;99.90
3564;DHT22;1796;52.388;13.096;2024-01-27T07:04:45;4.40;99.90
3564;DHT22;1796;52.388;13.096;2024-01-27T07:07:12;4.50;99.90
3564;DHT22;1796;52.388;13.096;2024-01-27T07:09:39;4.50;99.90
3564;DHT22;1796;52.388;13.096;2024-01-27T07:12:08;4.50;99.90
3564;DHT22;1796;52.388;13.096;2024-01-27T07:14:35;4.50;99.90
3564;DHT22;1796;52.388;13.096;2024-01-27T07:17:04;4.50;99.90
3564;DHT22;1796;52.388;13.096;2024-01-27T07:19:31;4.50;99.90
3564;DHT22;1796;52.388;13.096;2024-01-27T07:21:58;4.50;99.90
3564;DHT22;1796;52.388;13.096;2024-01-27T07:24:26;4.50;99.90
3564;DHT22;1796;52.388;13.096;2024-01-27T07:26:53;4.50;99.90
3564;DHT22;1796;52.388;13.096;2024-01-27T07:29:20;4.60;99.90
3564;DHT22;1796;52.388;13.096;2024-01-27T07:31:47;4.70;99.90
3564;DHT22;1796;52.388;13.096;2024-01-27T07:34:16;4.70;99.90
3564;DHT22;1796;52.388;13.096;2024-01-27T07:36:43;4.70;99.90
3564;DHT22;1796;52.388;13.096;2024-01-27T07:39:11;4.80;99.90
3564;DHT22;1796;52.388;13.096;2024-01-27T07:41:38;4.80;99.90
3564;DHT22;1796;52.388;13.096;2024-01-27T07:44:09;4.80;99.90
3564;DHT22;1796;52.388;13.096;2024-01-27T07:46:37;4.80;99.90
3564;DHT22;1796;52.388;13.096;2024-01-27T07:49:04;4.90;99.90
3564;DHT22;1796;52.388;13.096;2024-01-27T07:51:33;4.90;99.90
3564;DHT22;1796;52.388;13.096;2024-01-27T07:54:01;4.90;99.90
3564;DHT22;1796;52.388;13.096;2024-01-27T07:56:28;5.00;99.90
3564;DHT22;1796;52.388;13.096;2024-01-27T07:58:55;5.00;99.90
3564;DHT22;1796;52.388;13.096;2024-01-27T08:01:22;5.10;99.90
3564;DHT22;1796;52.388;13.096;2024-01-27T08:03:49;5.10;99.90
3564;DHT22;1796;52.388;13.096;2024-01-27T08:06:17;5.10;99.90
3564;DHT22;1796;52.388;13.096;2024-01-27T08:08:47;5.20;99.90
3564;DHT22;1796;52.388;13.096;2024-01-27T08:11:14;5.10;99.90
3564;DHT22;1796;52.388;13.096;2024-01-27T08:13:41;5.10;99.90
3564;DHT22;1796;52.388;13.096;2024-01-27T08:16:08;5.20;99.90
3564;DHT22;1796;52.388;13.096;2024-01-27T08:18:38;5.30;99.90
3564;DHT22;1796;52.388;13.096;2024-01-27T08:21:05;5.40;99.90
3564;DHT22;1796;52.388;13.096;2024-01-27T08:23:32;5.40;99.90
3564;DHT22;1796;52.388;13.096;2024-01-27T08:26:00;5.40;99.90
3564;DHT22;1796;52.388;13.096;2024-01-27T08:28:27;5.30;99.90
3564;DHT22;1796;52.388;13.096;2024-01-27T08:30:54;5.30;99.90
3564;DHT22;1796;52.388;13.096;2024-01-27T08:33:21;5.40;99.90
3564;DHT22;1796;52.388;13.096;2024-01-27T08:35:48;5.50;99.90
3564;DHT22;1796;52.388;13.096;2024-01-27T08:38:15;5.50;99.90
3564;DHT22;1796;52.388;13.096;2024-01-27T08:40:42;5.60;99.90
3564;DHT22;1796;52.388;13.096;2024-01-27T08:43:10;5.60;99.90
3564;DHT22;1796;52.388;13.096;2024-01-27T08:45:38;5.50;99.90
3564;DHT22;1796;52.388;13.096;2024-01-27T08:48:06;5.50;99.90
3564;DHT22;1796;52.388;13.096;2024-01-27T08:50:33;5.50;99.90
3564;DHT22;1796;52.388;13.096;2024-01-27T08:53:00;5.60;99.90
3564;DHT22;1796;52.388;13.096;2024-01-27T08:55:27;5.60;99.90
3564;DHT22;1796;52.388;13.096;2024-01-27T08:58:01;5.60;99.90
3564;DHT22;1796;52.388;13.096;2024-01-27T09:00:55;5.70;99.90
3564;DHT22;1796;52.388;13.096;2024-01-27T09:03:22;5.60;99.90
3564;DHT22;1796;52.388;13.096;2024-01-27T09:05:49;5.70;99.90
3564;DHT22;1796;52.388;13.096;2024-01-27T09:08:16;5.70;99.90
3564;DHT22;1796;52.388;13.096;2024-01-27T09:10:43;5.80;99.90
3564;DHT22;1796;52.388;13.096;2024-01-27T09:13:09;5.90;99.90
3564;DHT22;1796;52.388;13.096;2024-01-27T09:15:36;5.90;99.90
3564;DHT22;1796;52.388;13.096;2024-01-27T09:18:05;5.90;99.90
3564;DHT22;1796;52.388;13.096;2024-01-27T09:20:32;6.00;99.90
3564;DHT22;1796;52.388;13.096;2024-01-27T09:22:59;6.00;99.90
3564;DHT22;1796;52.388;13.096;2024-01-27T09:25:26;6.10;99.90
3564;DHT22;1796;52.388;13.096;2024-01-27T09:27:53;6.10;99.90
3564;DHT22;1796;52.388;13.096;2024-01-27T09:30:20;6.10;99.90
3564;DHT22;1796;52.388;13.096;2024-01-27T09:32:48;6.20;99.90
3564;DHT22;1796;52.388;13.096;2024-01-27T09:35:25;6.30;99.90
3564;DHT22;1796;52.388;13.096;2024-01-27T09:37:52;6.30;99.90
3564;DHT22;1796;52.388;13.096;2024-01-27T09:40:19;6.30;99.90
3564;DHT22;1796;52.388;13.096;2024-01-27T09:42:51;6.40;99.90
3564;DHT22;1796;52.388;13.096;2024-01-27T09:45:19;6.40;99.90
3564;DHT22;1796;52.388;13.096;2024-01-27T09:47:48;6.40;99.90
3564;DHT22;1796;52.388;13.096;2024-01-27T09:50:18;6.40;99.90
3564;DHT22;1796;52.388;13.096;2024-01-27T09:52:45;6.50;99.90
3564;DHT22;1796;52.388;13.096;2024-01-27T09:55:12;6.50;99.90
3564;DHT22;1796;52.388;13.096;2024-01-27T09:57:40;6.50;99.90
3564;DHT22;1796;52.388;13.096;2024-01-27T10:00:10;6.60;99.90
3564;DHT22;1796;52.388;13.096;2024-01-27T10:02:39;6.80;99.90
3564;DHT22;1796;52.388;13.096;2024-01-27T10:05:08;6.80;99.90
3564;DHT22;1796;52.388;13.096;2024-01-27T10:07:39;6.80;99.90
3564;DHT22;1796;52.388;13.096;2024-01-27T10:10:08;6.80;99.90
3564;DHT22;1796;52.388;13.096;2024-01-27T10:12:40;6.80;99.90
3564;DHT22;1796;52.388;13.096;2024-01-27T10:15:18;6.70;99.90
3564;DHT22;1796;52.388;13.096;2024-01-27T10:17:46;6.70;99.90
3564;DHT22;1796;52.388;13.096;2024-01-27T10:20:13;6.70;99.90
3564;DHT22;1796;52.388;13.096;2024-01-27T10:22:43;6.80;99.90
3564;DHT22;1796;52.388;13.096;2024-01-27T10:25:12;6.80;99.90
3564;DHT22;1796;52.388;13.096;2024-01-27T10:27:40;6.80;99.90
3564;DHT22;1796;52.388;13.096;2024-01-27T10:30:16;6.90;99.90
3564;DHT22;1796;52.388;13.096;2024-01-27T10:32:54;7.00;99.90
3564;DHT22;1796;52.388;13.096;2024-01-27T10:35:24;7.10;99.90
3564;DHT22;1796;52.388;13.096;2024-01-27T10:37:53;7.00;99.90
3564;DHT22;1796;52.388;13.096;2024-01-27T10:40:20;6.90;99.90
3564;DHT22;1796;52.388;13.096;2024-01-27T10:43:02;7.00;99.90
3564;DHT22;1796;52.388;13.096;2024-01-27T10:45:34;6.90;99.90
3564;DHT22;1796;52.388;13.096;2024-01-27T10:48:02;7.00;99.90
3564;DHT22;1796;52.388;13.096;2024-01-27T10:50:30;7.00;99.90
3564;DHT22;1796;52.388;13.096;2024-01-27T10:53:01;7.10;99.90
3564;DHT22;1796;52.388;13.096;2024-01-27T10:55:30;7.10;99.90
3564;DHT22;1796;52.388;13.096;2024-01-27T10:57:59;7.10;99.90
3564;DHT22;1796;52.388;13.096;2024-01-27T11:00:28;7.10;99.90
3564;DHT22;1796;52.388;13.096;2024-01-27T11:02:58;7.10;99.90
3564;DHT22;1796;52.388;13.096;2024-01-27T11:05:27;7.20;99.90
3564;DHT22;1796;52.388;13.096;2024-01-27T11:07:55;7.30;99.90
3564;DHT22;1796;52.388;13.096;2024-01-27T11:10:24;7.20;99.90
3564;DHT22;1796;52.388;13.096;2024-01-27T11:12:52;7.20;99.90
3564;DHT22;1796;52.388;13.096;2024-01-27T11:15:20;7.30;99.90
3564;DHT22;1796;52.388;13.096;2024-01-27T11:17:47;7.30;99.90
3564;DHT22;1796;52.388;13.096;2024-01-27T11:20:15;7.30;99.90
3564;DHT22;1796;52.388;13.096;2024-01-27T11:22:42;7.40;99.90
3564;DHT22;1796;52.388;13.096;2024-01-27T11:25:15;7.20;99.90
3564;DHT22;1796;52.388;13.096;2024-01-27T11:27:45;7.20;99.90
3564;DHT22;1796;52.388;13.096;2024-01-27T11:30:25;7.10;99.90
3564;DHT22;1796;52.388;13.096;2024-01-27T11:32:54;7.20;99.90
3564;DHT22;1796;52.388;13.096;2024-01-27T11:35:23;7.10;99.90
3564;DHT22;1796;52.388;13.096;2024-01-27T11:37:50;7.10;99.90
3564;DHT22;1796;52.388;13.096;2024-01-27T11:40:17;7.10;99.90
3564;DHT22;1796;52.388;13.096;2024-01-27T11:42:53;7.10;99.90
3564;DHT22;1796;52.388;13.096;2024-01-27T11:45:20;7.10;99.90
3564;DHT22;1796;52.388;13.096;2024-01-27T11:47:47;6.90;99.90
3564;DHT22;1796;52.388;13.096;2024-01-27T11:50:16;7.00;99.90
3564;DHT22;1796;52.388;13.096;2024-01-27T11:52:44;7.20;99.90
3564;DHT22;1796;52.388;13.096;2024-01-27T11:55:11;7.20;99.90
3564;DHT22;1796;52.388;13.096;2024-01-27T11:57:38;7.20;99.90
3564;DHT22;1796;52.388;13.096;2024-01-27T12:00:07;7.20;99.90
3564;DHT22;1796;52.388;13.096;2024-01-27T12:02:35;7.00;99.90
3564;DHT22;1796;52.388;13.096;2024-01-27T12:05:02;6.90;99.90
3564;DHT22;1796;52.388;13.096;2024-01-27T12:07:29;6.90;99.90
3564;DHT22;1796;52.388;13.096;2024-01-27T12:09:56;7.00;99.90
3564;DHT22;1796;52.388;13.096;2024-01-27T12:12:23;7.10;99.90
3564;DHT22;1796;52.388;13.096;2024-01-27T12:14:51;7.20;99.90
3564;DHT22;1796;52.388;13.096;2024-01-27T12:17:20;7.40;99.90
3564;DHT22;1796;52.388;13.096;2024-01-27T12:19:47;7.30;99.90
3564;DHT22;1796;52.388;13.096;2024-01-27T12:22:22;7.10;99.90
3564;DHT22;1796;52.388;13.096;2024-01-27T12:24:51;6.80;99.90
3564;DHT22;1796;52.388;13.096;2024-01-27T12:27:17;6.70;99.90
3564;DHT22;1796;52.388;13.096;2024-01-27T12:29:46;6.80;99.90
3564;DHT22;1796;52.388;13.096;2024-01-27T12:32:12;6.70;99.90
3564;DHT22;1796;52.388;13.096;2024-01-27T12:34:41;6.70;99.90
3564;DHT22;1796;52.388;13.096;2024-01-27T12:37:10;6.60;99.90
3564;DHT22;1796;52.388;13.096;2024-01-27T12:39:37;6.60;99.90
3564;DHT22;1796;52.388;13.096;2024-01-27T12:42:05;6.70;99.90
3564;DHT22;1796;52.388;13.096;2024-01-27T12:44:32;6.90;99.90
3564;DHT22;1796;52.388;13.096;2024-01-27T12:46:58;7.00;99.90
3564;DHT22;1796;52.388;13.096;2024-01-27T12:49:26;7.10;99.90
3564;DHT22;1796;52.388;13.096;2024-01-27T12:51:54;7.20;99.90
3564;DHT22;1796;52.388;13.096;2024-01-27T12:54:21;7.30;99.90
3564;DHT22;1796;52.388;13.096;2024-01-27T12:56:48;7.20;99.90
3564;DHT22;1796;52.388;13.096;2024-01-27T12:59:15;7.00;99.90
3564;DHT22;1796;52.388;13.096;2024-01-27T13:01:42;6.80;99.90
3564;DHT22;1796;52.388;13.096;2024-01-27T13:04:09;6.50;99.90
3564;DHT22;1796;52.388;13.096;2024-01-27T13:06:36;6.60;99.90
3564;DHT22;1796;52.388;13.096;2024-01-27T13:09:05;6.70;99.90
3564;DHT22;1796;52.388;13.096;2024-01-27T13:11:33;6.60;99.90
3564;DHT22;1796;52.388;13.096;2024-01-27T13:14:00;6.70;99.90
3564;DHT22;1796;52.388;13.096;2024-01-27T13:16:27;6.70;99.90
3564;DHT22;1796;52.388;13.096;2024-01-27T13:18:54;6.70;99.90
3564;DHT22;1796;52.388;13.096;2024-01-27T13:21:21;6.60;99.90
3564;DHT22;1796;52.388;13.096;2024-01-27T13:23:48;6.60;99.90
3564;DHT22;1796;52.388;13.096;2024-01-27T13:26:15;6.70;99.90
3564;DHT22;1796;52.388;13.096;2024-01-27T13:28:42;6.70;99.90
3564;DHT22;1796;52.388;13.096;2024-01-27T13:31:09;6.70;99.90
3564;DHT22;1796;52.388;13.096;2024-01-27T13:33:36;6.70;99.90
3564;DHT22;1796;52.388;13.096;2024-01-27T13:36:03;6.70;99.90
3564;DHT22;1796;52.388;13.096;2024-01-27T13:38:30;6.80;99.90
3564;DHT22;1796;52.388;13.096;2024-01-27T13:40:57;6.80;99.90
3564;DHT22;1796;52.388;13.096;2024-01-27T13:43:25;6.80;99.90
3564;DHT22;1796;52.388;13.096;2024-01-27T13:45:52;6.80;99.90
3564;DHT22;1796;52.388;13.096;2024-01-27T13:48:20;6.80;99.90
3564;DHT22;1796;52.388;13.096;2024-01-27T13:50:47;6.80;99.90
3564;DHT22;1796;52.388;13.096;2024-01-27T13:53:14;6.80;99.90
3564;DHT22;1796;52.388;13.096;2024-01-27T13:55:40;6.70;99.90
3564;DHT22;1796;52.388;13.096;2024-01-27T13:58:09;6.90;99.90
3564;DHT22;1796;52.388;13.096;2024-01-27T14:00:37;6.90;99.90
3564;DHT22;1796;52.388;13.096;2024-01-27T14:03:04;6.90;99.90
3564;DHT22;1796;52.388;13.096;2024-01-27T14:05:31;6.90;99.90
3564;DHT22;1796;52.388;13.096;2024-01-27T14:07:58;6.90;99.90
3564;DHT22;1796;52.388;13.096;2024-01-27T14:10:25;7.00;99.90
3564;DHT22;1796;52.388;13.096;2024-01-27T14:12:52;7.10;99.90
3564;DHT22;1796;52.388;13.096;2024-01-27T14:15:19;7.10;99.90
3564;DHT22;1796;52.388;13.096;2024-01-27T14:17:47;7.10;99.90
3564;DHT22;1796;52.388;13.096;2024-01-27T14:20:14;7.10;99.90
3564;DHT22;1796;52.388;13.096;2024-01-27T14:22:41;7.10;99.90
3564;DHT22;1796;52.388;13.096;2024-01-27T14:25:09;7.00;99.90
3564;DHT22;1796;52.388;13.096;2024-01-27T14:27:36;7.00;99.90
3564;DHT22;1796;52.388;13.096;2024-01-27T14:30:03;7.20;99.90
3564;DHT22;1796;52.388;13.096;2024-01-27T14:32:30;7.20;99.90
3564;DHT22;1796;52.388;13.096;2024-01-27T14:34:59;7.20;99.90
3564;DHT22;1796;52.388;13.096;2024-01-27T14:37:26;7.20;99.90
3564;DHT22;1796;52.388;13.096;2024-01-27T14:39:52;7.10;99.90
3564;DHT22;1796;52.388;13.096;2024-01-27T14:42:19;7.10;99.90
3564;DHT22;1796;52.388;13.096;2024-01-27T14:44:46;7.10;99.90
3564;DHT22;1796;52.388;13.096;2024-01-27T14:47:15;7.20;99.90
3564;DHT22;1796;52.388;13.096;2024-01-27T14:49:41;7.10;99.90
3564;DHT22;1796;52.388;13.096;2024-01-27T14:52:12;7.10;99.90
3564;DHT22;1796;52.388;13.096;2024-01-27T14:54:39;7.00;99.90
3564;DHT22;1796;52.388;13.096;2024-01-27T14:57:06;7.00;99.90
3564;DHT22;1796;52.388;13.096;2024-01-27T14:59:34;7.00;99.90
3564;DHT22;1796;52.388;13.096;2024-01-27T15:02:01;6.90;99.90
3564;DHT22;1796;52.388;13.096;2024-01-27T15:04:28;6.80;99.90
3564;DHT22;1796;52.388;13.096;2024-01-27T15:06:55;6.80;99.90
3564;DHT22;1796;52.388;13.096;2024-01-27T15:09:24;6.70;99.90
3564;DHT22;1796;52.388;13.096;2024-01-27T15:11:51;6.70;99.90
3564;DHT22;1796;52.388;13.096;2024-01-27T15:14:18;6.60;99.90
3564;DHT22;1796;52.388;13.096;2024-01-27T15:16:45;6.50;99.90
3564;DHT22;1796;52.388;13.096;2024-01-27T15:19:13;6.50;99.90
3564;DHT22;1796;52.388;13.096;2024-01-27T15:21:39;6.40;99.90
3564;DHT22;1796;52.388;13.096;2024-01-27T15:24:07;6.30;99.90
3564;DHT22;1796;52.388;13.096;2024-01-27T15:26:35;6.30;99.90
3564;DHT22;1796;52.388;13.096;2024-01-27T15:29:02;6.30;99.90
3564;DHT22;1796;52.388;13.096;2024-01-27T15:31:29;6.20;99.90
3564;DHT22;1796;52.388;13.096;2024-01-27T15:33:56;6.20;99.90
3564;DHT22;1796;52.388;13.096;2024-01-27T15:36:23;6.10;99.90
3564;DHT22;1796;52.388;13.096;2024-01-27T15:38:50;6.00;99.90
3564;DHT22;1796;52.388;13.096;2024-01-27T15:41:17;5.90;99.90
3564;DHT22;1796;52.388;13.096;2024-01-27T15:43:45;5.90;99.90
3564;DHT22;1796;52.388;13.096;2024-01-27T15:46:15;5.80;99.90
3564;DHT22;1796;52.388;13.096;2024-01-27T15:48:42;5.80;99.90
3564;DHT22;1796;52.388;13.096;2024-01-27T15:51:09;5.80;99.90
3564;DHT22;1796;52.388;13.096;2024-01-27T15:53:36;5.70;99.90
3564;DHT22;1796;52.388;13.096;2024-01-27T15:56:03;5.70;99.90
3564;DHT22;1796;52.388;13.096;2024-01-27T15:58:31;5.70;99.90
3564;DHT22;1796;52.388;13.096;2024-01-27T16:01:00;5.60;99.90
3564;DHT22;1796;52.388;13.096;2024-01-27T16:03:26;5.60;99.90
3564;DHT22;1796;52.388;13.096;2024-01-27T16:05:53;5.50;99.90